Allentsteig, Austria

11:16 PM CET on November 23, 2014 (GMT +0100)
INIEDERS238 | Change Station
CLOSE
Current Station
Personal Weather Station
Location: Limpfings, NIEDERöSTERREICH
Elevation: 1719 ft
Nearby Weather Stations

Elev 1719 ft 48.75 °N, 15.27 °E | Updated 0 second ago

Overcast
Overcast
37.8 °F
Feels Like 34 °F
N
4.9
Wind Variable Wind from ESE
Gusts 7.4 mph

Today
High -- | Low -- °F
--% Chance of Precip.
Yesterday
High -- | Low -- °F
Precip. -- in
7:18 AM 4:10 PM
New Moon, 2% visible
Pressure 30.33 in
Visibility 4.3 miles
Clouds Overcast 1000 ft
Windchill 34 °F
Dew Point 36 °F
Humidity 92%
Rainfall 0.00 in
Snow Depth Not available.
UV 0.0 out of 12
Pollen Not available.
Air Quality Not available.
Flu Activity Not available.
METAR LKNA 232200Z 14010KT 7000 OVC010 03/02 Q1027

More Conditions Fewer Conditions

Pressure 30.33 in
Visibility 4.3 miles
Clouds Overcast 1000 ft
Windchill 34 °F
Dew Point 36 °F
Humidity 92%
Rainfall 0.00 in
Snow Depth Not available.
UV 0.0 out of 12
Pollen Not available.
Air Quality Not available.
Flu Activity Not available.
METAR LKNA 232200Z 14010KT 7000 OVC010 03/02 Q1027

More Conditions Fewer Conditions

10-Day Weather Forecast

Almanac

Astronomy

Nov. 23, 2014 Rise Set
Actual Time
Civil Twilight
Nautical Twilight
Astronomical Twilight
Moon
Length of Visible Light
Length of Day
Tomorrow will be .
, % of the Moon is Illuminated

Today's Extremes

Country Highs Country Lows

Community

WunderPhotos

Upload Photos

1,773,183 photos uploaded!

WunderBlogs® & News

Nearby

Air Quality

  Air Quality AQ Index Pollutant
Not available.

Snow Depth

Station Depth Elevation

Earthquake Activity

City Distance Mag. Time & Date
Minimum magnitude displayed is 2.5.

Coastal Water Temperatures

Place Temperature

Nearby Weather Stations